WetterOnline ( https://www.wetteronline.de )

Wetter aktuell Schortens

Aktuelles Wetter: Bremerhaven (11m)

6-stündlich | Neueste Meldungen
Ortszeit Temperatur Wetter
Do, 23.05. 8:00 15.3° C leicht bewölkt
Do, 23.05. 2:00 15.3° C wolkig
Mi, 22.05. 20:00 17.1° C leichter Regen
Mi, 22.05. 14:00 16.5° C leichter Regen
Mi, 22.05. 8:00 15.9° C bedeckt
Mi, 22.05. 2:00 17.3° C bewölkt
Di, 21.05. 20:00 21.2° C bedeckt
Di, 21.05. 14:00 22.1° C wolkenlos
Ortszeit Temperatur Wetter
Do, 23.05. 8:00 15.3° C leicht bewölkt
Do, 23.05. 7:50 15.3° C leicht bewölkt
Do, 23.05. 7:40 15.1° C leicht bewölkt
Do, 23.05. 7:30 15.0° C leicht bewölkt
Do, 23.05. 7:20 15.0° C leicht bewölkt
Do, 23.05. 7:10 14.9° C wolkig
Do, 23.05. 7:00 14.8° C leicht bewölkt
Do, 23.05. 6:30 15.0° C bedeckt
Do, 23.05. 6:00 15.3° C wolkig
Do, 23.05. 5:30 15.6° C leicht bewölkt
Do, 23.05. 5:00 15.6° C bewölkt
Ortszeit Relative Feuchte Sichtweite
Do, 23.05. 8:00 81% 21 km
Do, 23.05. 2:00 95% 7 km
Mi, 22.05. 20:00 84% 12 km
Mi, 22.05. 14:00 94% 9 km
Mi, 22.05. 8:00 91% 21 km
Mi, 22.05. 2:00 75% 35 km
Di, 21.05. 20:00 64% 35 km
Di, 21.05. 14:00 59% 27 km
Ortszeit Relative Feuchte Sichtweite
Do, 23.05. 8:00 81% 21 km
Do, 23.05. 7:50 81% -
Do, 23.05. 7:40 81% -
Do, 23.05. 7:30 81% 26 km
Do, 23.05. 7:20 81% -
Do, 23.05. 7:10 82% -
Do, 23.05. 7:00 84% 21 km
Do, 23.05. 6:30 85% 20 km
Do, 23.05. 6:00 85% 17 km
Do, 23.05. 5:30 85% 18 km
Do, 23.05. 5:00 88% 13 km
Ortszeit Niederschlagsmenge Niederschlagsart
Do, 23.05. 8:00 0.1 l/m2 in 12 Std. -
Do, 23.05. 2:00 0.1 l/m2 in 6 Std. Regen
Mi, 22.05. 20:00 7 l/m2 in 12 Std. Regen
Mi, 22.05. 14:00 6 l/m2 in 6 Std. Regen
Mi, 22.05. 8:00 3 l/m2 in 12 Std. Regen
Mi, 22.05. 2:00 0.0 l/m2 in 6 Std. -
Di, 21.05. 20:00 0.0 l/m2 in 12 Std. -
Di, 21.05. 14:00 0.0 l/m2 in 6 Std. -
Ortszeit Niederschlagsmenge Niederschlagsart
Do, 23.05. 8:00 0.0 l/m2 in 1 Std. -
Do, 23.05. 7:50 keine Meldung -
Do, 23.05. 7:40 keine Meldung -
Do, 23.05. 7:30 0.0 l/m2 in 30 Min -
Do, 23.05. 7:20 keine Meldung -
Do, 23.05. 7:10 keine Meldung -
Do, 23.05. 7:00 0.0 l/m2 in 1 Std. -
Do, 23.05. 6:30 0.0 l/m2 in 30 Min -
Do, 23.05. 6:00 0.0 l/m2 in 1 Std. -
Do, 23.05. 5:30 0.0 l/m2 in 30 Min -
Do, 23.05. 5:00 0.0 l/m2 in 1 Std. -
Ortszeit Stärke Spitze Richtung
km/h Bft. km/h Grad Sektor
Do, 23.05. 8:00 18 3 29 250° W
Do, 23.05. 2:00 4 1 18 120° SO
Mi, 22.05. 20:00 11 2 22 260° W
Mi, 22.05. 14:00 11 2 32 220° SW
Mi, 22.05. 8:00 17 3 41 90° O
Mi, 22.05. 2:00 22 4 46 70° O
Di, 21.05. 20:00 22 4 50 70° O
Di, 21.05. 14:00 26 4 41 80° O
Ortszeit Stärke Spitze Richtung
km/h Bft. km/h Grad Sektor
Do, 23.05. 8:00 18 3 25 250° W
Do, 23.05. 7:50 18 3 - 250° W
Do, 23.05. 7:40 20 4 - 240° SW
Do, 23.05. 7:30 17 3 24 250° W
Do, 23.05. 7:20 17 3 - 250° W
Do, 23.05. 7:10 18 3 - 250° W
Do, 23.05. 7:00 19 3 26 240° SW
Do, 23.05. 6:30 20 4 26 240° SW
Do, 23.05. 6:00 17 3 24 240° SW
Do, 23.05. 5:30 19 3 22 240° SW
Do, 23.05. 5:00 18 3 29 240° SW
Ortszeit Untergrenze Bedeckung Gattung
total tief tief mittel hoch
Do, 23.05. 8:00 4800 m 4/8 4/8 - - -
Do, 23.05. 2:00 1440 m 8/8 2/8 - - -
Mi, 22.05. 20:00 1290 m 8/8 7/8 - - -
Mi, 22.05. 14:00 300 m 7/8 7/8 - - -
Mi, 22.05. 8:00 990 m 8/8 8/8 - - -
Mi, 22.05. 2:00 2700 m 8/8 7/8 - - -
Di, 21.05. 20:00 6300 m 8/8 8/8 - - -
Di, 21.05. 14:00 - 0/8 0/8 - - -
Ortszeit Bedeckungsgrad in Achtel und Wolkenuntergrenze
Do, 23.05. 8:00 4(4800m)
Do, 23.05. 7:50 4(4800m)
Do, 23.05. 7:40 2
Do, 23.05. 7:30 2(4800m)
Do, 23.05. 7:20 2(4800m)
Do, 23.05. 7:10 5
Do, 23.05. 7:00 4(4800m)
Do, 23.05. 6:30 8(4800m)
Do, 23.05. 6:00 6(1800m) 6(4800m)
Do, 23.05. 5:30 4(1800m) 4(3900m)
Do, 23.05. 5:00 6(930m) 7(1500m) 8(3900m)
Ortszeit Luftdruck NN (hPa) Tendenz (hPa in 3 Std.)
Do, 23.05. 8:00 1012 + 1,1
Do, 23.05. 2:00 1011 - 0,1
Mi, 22.05. 20:00 1010 + 0,3
Mi, 22.05. 14:00 1009 + 1,7
Mi, 22.05. 8:00 1005 0,0
Mi, 22.05. 2:00 1006 - 1,3
Di, 21.05. 20:00 1008 - 0,6
Di, 21.05. 14:00 1010 - 1,5
Ortszeit Luftdruck NN (hPa) Tendenz (hPa in 3 Std.)
Do, 23.05. 8:00 1012 + 1,1
Do, 23.05. 7:50 1012 keine Meldung
Do, 23.05. 7:40 1012 keine Meldung
Do, 23.05. 7:30 1012 + 1,0
Do, 23.05. 7:20 1012 keine Meldung
Do, 23.05. 7:10 1012 keine Meldung
Do, 23.05. 7:00 1012 + 1,0
Do, 23.05. 6:30 1012 + 0,9
Do, 23.05. 6:00 1012 + 0,7
Do, 23.05. 5:30 1011 + 0,3
Do, 23.05. 5:00 1011 + 0,3
Ortszeit Schneehöhe (cm)
Do, 23.05. 8:00 0
Do, 23.05. 2:00 0
Mi, 22.05. 20:00 0
Mi, 22.05. 14:00 0
Mi, 22.05. 8:00 0
Mi, 22.05. 2:00 0
Di, 21.05. 20:00 0
Di, 21.05. 14:00 0
Ortszeit Schneehöhe (cm)
Do, 23.05. 8:00 0
Do, 23.05. 7:50 0
Do, 23.05. 7:40 -
Do, 23.05. 7:30 0
Do, 23.05. 7:20 0
Do, 23.05. 7:10 -
Do, 23.05. 7:00 0
Do, 23.05. 6:30 0
Do, 23.05. 6:00 0
Do, 23.05. 5:30 0
Do, 23.05. 5:00 0
Link zu dieser Seite / Seite empfehlen

Das Wetter in ...